SVRH weather

Rancho Grande de Táchira Airport
Tachira, Venezuela

Public forecast

Using degrees Celsius for public forecast. Weather courtesy of forecast.io.

METAR (pilot weather report)

Report is more than 6 hours old.

Closest report is Mayor Buenaventura Vivas International Airport, 4.4 nm (8.1 km) SW. Retrieved 2018/06/14 13:00 UTC (9 months ago):

SVSO 141300Z /////KT 9999 BKN020 24/22 Q1016

TAF (pilot weather forecast)

Forecast is more than 12 hours old.

Closest forecast is San Antonio Del Tachira Airport, 30.3 nm (56.1 km) WNW. Retrieved 2019/03/17 18:03 UTC (7 days ago):

TAF TAF SVSA 170400Z 1718/1818 15003KT 9999 SCT020 TX25/1618Z TN18/1706Z TEMPO 1709/1713 09006KT 9999 SCT020 BKN090